Hovedside
METAR-TAF:

METAR-TAF

Lufthavner :

Västerås, Sverige

Västerås lufthavn

breddegrad: 59-35N, lengdegrad: 016-38E, høyde over havet: 6 m

Gjeldene værobservasjon

Denne rapporten ble laget for 17 minutter siden, klokken 07:20 UTC
Vind 6 kt fra Vest-sørvest, skiftende mellom Sør-sørvest og Vest-nordvest
Temperatur 12°C
Luftfuktighet 58%
Trykk 1009 hPa
Sikt 10 km eller mer

METAR: ESOW 210720Z AUTO 25006KT 200V290 9999 NCD 12/04 Q1009

Tid: 09:37 (07:37 UTC)

Varsel

Denne rapporten ble laget for 17 timer og 7 minutter siden, klokken 14:30 UTC
Varsel gyldig fra 20. klokken 15 UTC til 20. klokken 17 UTC
Vind 11 kt fra Sørvest
Sikt 10 km eller mer
ingen skyer under 1500 m og ingen bygeskyer

TAF: ESOW 201430Z 2015/2017 22011KT CAVOK

Værobservasjoner og værvarsel for over 4000 flyplasser (METAR- og TAF-rapporter).

Tilgjengelige stasjoner er representert av de røde og gule prikkene på kartet.

Hold musepekeren over prikken for å se navnet på stasjonen.

Klikk så for å se værobservasjoner og -varsler.

For å forandre kartet kan du klikke på den grønne knappen med svart kryss for å zoome inn, på den grønne knappen med strek for å zoome ut, eller på de grønne pilene for å se tilstøtende kart.


METAR-TAF: